METAR Data
IDs: Format: Raw Decoded Include TAF

Data at: 0624 UTC 24 Sep 2018

KPCW 240615Z AUTO 10005KT 10SM FEW027 16/14 A3018 RMK AO2
KPCW 240555Z AUTO 10006KT 10SM FEW028 17/14 A3018 RMK AO2
KPCW 240535Z AUTO 10007KT 10SM CLR 17/14 A3018 RMK AO2
KPCW 240515Z AUTO 10007KT 10SM CLR 17/14 A3019 RMK AO2
KPCW 240455Z AUTO 10007KT 10SM CLR 17/14 A3019 RMK AO2
KPCW 240435Z AUTO 10008KT 10SM 17/14 A3018 RMK AO2
KPCW 240415Z AUTO 10008G13KT 10SM CLR 18/15 A3019 RMK AO2
KPCW 240355Z AUTO 10008KT 10SM FEW025 SCT030 18/15 A3019 RMK AO2
KPCW 240335Z AUTO 08009KT 10SM FEW025 FEW030 18/15 A3019 RMK AO2
KPCW 240315Z AUTO 09009KT 10SM FEW023 18/15 A3019 RMK AO2
KPCW 240255Z AUTO 10009KT 10SM FEW021 18/15 A3019 RMK AO2
KPCW 240235Z AUTO 09009G15KT 10SM SCT016 BKN021 18/15 A3019 RMK AO2
KPCW 240215Z AUTO 09010KT 10SM BKN015 BKN021 18/14 A3018 RMK AO2
KPCW 240155Z AUTO 08009KT 10SM BKN015 17/14 A3018 RMK AO2
KPCW 240135Z AUTO 09010KT 10SM BKN015 17/13 A3018 RMK AO2
KPCW 240115Z AUTO 09007G12KT 10SM SCT015 17/13 A3018 RMK AO2
KPCW 240055Z AUTO 09008KT 10SM FEW015 17/14 A3017 RMK AO2
KPCW 240035Z AUTO 08007KT 10SM SCT015 17/14 A3017 RMK AO2
KPCW 240015Z AUTO 09008G13KT 10SM SCT015 17/13 A3017 RMK AO2
KPCW 232355Z AUTO 09008KT 10SM CLR 17/13 A3016 RMK AO2
KPCW 232335Z AUTO 09006KT 10SM CLR 17/13 A3016 RMK AO2
KPCW 232315Z AUTO 09006KT 10SM CLR 18/13 A3016 RMK AO2
KPCW 232255Z AUTO 09007KT 10SM CLR 18/12 A3016 RMK AO2
KPCW 232235Z AUTO 08010G15KT 10SM CLR 19/12 A3016 RMK AO2
KPCW 232215Z AUTO 07011KT 10SM CLR 19/12 A3016 RMK AO2
KPCW 232155Z AUTO 07010G16KT 10SM CLR 19/13 A3015 RMK AO2
KPCW 232135Z AUTO 08013KT 10SM CLR 19/13 A3015 RMK AO2
KPCW 232115Z AUTO 07010G16KT 10SM CLR 20/13 A3016 RMK AO2
KPCW 232055Z AUTO 09011KT 10SM CLR 20/13 A3016 RMK AO2
KPCW 232035Z AUTO 08009G16KT 10SM FEW028 20/13 A3016 RMK AO2
KPCW 232015Z AUTO 10011G16KT 10SM FEW028 20/12 A3016 RMK AO2
KPCW 231955Z AUTO 08013KT 10SM CLR 20/12 A3016 RMK AO2
KPCW 231935Z AUTO 07013KT 10SM FEW028 20/12 A3017 RMK AO2
KPCW 231915Z AUTO 07014KT 10SM SCT028 20/12 A3017 RMK AO2
KPCW 231855Z AUTO 07012G20KT 10SM BKN029 19/12 A3017 RMK AO2
KPCW 231835Z AUTO 07012KT 10SM BKN027 OVC032 19/13 A3018 RMK AO2
KPCW 231815Z AUTO 08010G19KT 10SM BKN027 OVC032 19/13 A3018 RMK AO2
KPCW 231755Z AUTO 08010KT 10SM BKN028 OVC033 19/13 A3019 RMK AO2
KPCW 231735Z AUTO 07014KT 10SM FEW027 OVC034 19/13 A3020 RMK AO2
KPCW 231715Z AUTO 07009G16KT 10SM BKN031 OVC036 19/13 A3020 RMK AO2
KPCW 231655Z AUTO 06011KT 10SM OVC032 19/12 A3020 RMK AO2
KPCW 231635Z AUTO 08010G15KT 10SM OVC032 20/12 A3020 RMK AO2
KPCW 231615Z AUTO 07012KT 10SM FEW024 OVC032 20/11 A3021 RMK AO2
KPCW 231555Z AUTO 06008KT 10SM SCT025 OVC030 19/14 A3021 RMK AO2
KPCW 231535Z AUTO 07009KT 10SM OVC030 19/12 A3021 RMK AO2
KPCW 231515Z AUTO 07010KT 10SM OVC030 18/12 A3020 RMK AO2
KPCW 231455Z AUTO 07009KT 10SM OVC030 18/12 A3021 RMK AO2
KPCW 231435Z AUTO 00000KT 10SM OVC029 16/12 A3021 RMK AO2
KPCW 231415Z AUTO 00000KT 10SM OVC028 16/12 A3021 RMK AO2
KPCW 231355Z AUTO 00000KT 10SM OVC028 16/12 A3021 RMK AO2
KPCW 231335Z AUTO 00000KT 10SM BKN029 15/12 A3020 RMK AO2
KPCW 231315Z AUTO 00000KT 10SM BKN029 14/12 A3019 RMK AO2
KPCW 231255Z AUTO 00000KT 10SM SCT025 BKN030 14/12 A3019 RMK AO2
KPCW 231235Z AUTO 00000KT 10SM BKN025 OVC029 13/12 A3020 RMK AO2
KPCW 231215Z AUTO 00000KT 10SM OVC028 13/12 A3020 RMK AO2
KPCW 231155Z AUTO 00000KT 10SM OVC028 12/11 A3019 RMK AO2
KPCW 231135Z AUTO 00000KT 10SM 12/10 A3019 RMK AO2
KPCW 231115Z AUTO 00000KT 10SM 13/11 A3018 RMK AO2
KPCW 231055Z AUTO 00000KT 10SM 12/10 A3019 RMK AO2
KPCW 231035Z AUTO 00000KT 10SM 12/10 A3018 RMK AO2
KPCW 231015Z AUTO 00000KT 10SM 12/10 A3018 RMK AO2
KPCW 230955Z AUTO 00000KT 10SM 12/10 A3018 RMK AO2
KPCW 230935Z AUTO 19005KT 10SM 11/10 A3019 RMK AO2
KPCW 230915Z AUTO 17006KT 10SM OVC030 12/10 A3018 RMK AO2
KPCW 230855Z AUTO 17005KT 10SM 13/11 A3018 RMK AO2
KPCW 230835Z AUTO 00000KT 10SM OVC029 12/10 A3018 RMK AO2
KPCW 230815Z AUTO 00000KT 10SM OVC028 11/09 A3018 RMK AO2
KPCW 230755Z AUTO 00000KT 10SM 11/10 A3018 RMK AO2
KPCW 230735Z AUTO 00000KT 10SM OVC030 11/09 A3018 RMK AO2
KPCW 230715Z AUTO 00000KT 10SM BKN030 11/09 A3019 RMK AO2
KPCW 230655Z AUTO 00000KT 10SM BKN031 11/09 A3018 RMK AO2
KPCW 230635Z AUTO 00000KT 10SM FEW021 BKN031 11/09 A3019 RMK AO2
KPCW 230615Z AUTO 17004KT 10SM OVC030 11/09 A3020 RMK AO2
KPCW 230555Z AUTO 00000KT 10SM 10/09 A3020 RMK AO2
KPCW 230535Z AUTO 00000KT 10SM SCT018 OVC030 10/09 A3020 RMK AO2
KPCW 230515Z AUTO 00000KT 10SM OVC019 10/09 A3020 RMK AO2
KPCW 230455Z AUTO 00000KT 10SM BKN020 OVC026 10/09 A3021 RMK AO2
KPCW 230435Z AUTO 00000KT 10SM SCT019 BKN025 BKN030 11/09 A3021 RMK AO2
KPCW 230415Z AUTO 00000KT 10SM 11/09 A3022 RMK AO2
KPCW 230355Z AUTO 00000KT 10SM 11/09 A3022 RMK AO2
KPCW 230335Z AUTO 00000KT 10SM BKN020 BKN033 11/09 A3022 RMK AO2
KPCW 230315Z AUTO 00000KT 10SM FEW016 FEW024 OVC032 11/09 A3022 RMK AO2
KPCW 230255Z AUTO 00000KT 10SM 12/09 A3022 RMK AO2
KPCW 230235Z AUTO 00000KT 10SM SCT016 BKN022 BKN031 12/09 A3022 RMK AO2
KPCW 230215Z AUTO 00000KT 10SM BKN016 BKN020 BKN030 13/09 A3022 RMK AO2
KPCW 230155Z AUTO 00000KT 10SM BKN019 BKN030 13/09 A3022 RMK AO2
KPCW 230135Z AUTO 00000KT 10SM BKN017 BKN023 BKN030 13/09 A3022 RMK AO2
KPCW 230115Z AUTO 11003KT 10SM BKN018 BKN024 OVC031 13/10 A3022 RMK AO2
KPCW 230055Z AUTO 11004KT 10SM FEW017 FEW022 OVC032 14/10 A3022 RMK AO2
KPCW 230035Z AUTO 10005KT 10SM OVC032 14/10 A3021 RMK AO2
KPCW 230015Z AUTO 10004KT 10SM 15/10 A3022 RMK AO2
KPCW 222355Z AUTO 10005KT 10SM BKN034 15/10 A3022 RMK AO2
KPCW 222335Z AUTO 10004KT 10SM BKN036 15/09 A3023 RMK AO2
KPCW 222315Z AUTO 08006KT 10SM BKN035 15/10 A3023 RMK AO2
KPCW 222255Z AUTO 07005KT 10SM OVC036 16/09 A3023 RMK AO2
KPCW 222235Z AUTO 07007KT 10SM OVC035 16/09 A3023 RMK AO2
KPCW 222215Z AUTO 07006KT 10SM OVC037 16/09 A3023 RMK AO2
KPCW 222155Z AUTO 06005KT 10SM OVC036 16/09 A3024 RMK AO2
KPCW 222135Z AUTO 06007KT 10SM OVC034 16/10 A3023 RMK AO2
KPCW 222115Z AUTO 05007KT 10SM OVC035 16/10 A3023 RMK AO2
KPCW 222055Z AUTO 09007KT 10SM OVC037 16/10 A3023 RMK AO2
KPCW 222035Z AUTO 05008KT 10SM SCT031 OVC038 16/10 A3023 RMK AO2
KPCW 222015Z AUTO 07008KT 10SM BKN032 OVC038 17/10 A3024 RMK AO2
KPCW 221955Z AUTO 07008KT 10SM BKN030 OVC036 16/10 A3025 RMK AO2
KPCW 221935Z AUTO 05008KT 10SM FEW028 OVC037 17/10 A3025 RMK AO2
KPCW 221915Z AUTO 05007KT 10SM FEW027 OVC038 16/11 A3027 RMK AO2
KPCW 221855Z AUTO 05008KT 10SM BKN030 OVC039 16/11 A3027 RMK AO2
KPCW 221835Z AUTO 04007KT 10SM SCT030 OVC037 17/10 A3028 RMK AO2